createdAt,value
2019-02-16T00:01:04.910Z,96.91
2019-02-16T00:03:34.076Z,96.98
2019-02-16T00:06:03.542Z,96.51
2019-02-16T00:08:32.996Z,96.30
2019-02-16T00:11:02.113Z,96.33
2019-02-16T00:13:31.269Z,96.67
2019-02-16T00:16:00.367Z,96.56
2019-02-16T00:18:29.572Z,96.74
2019-02-16T00:21:04.095Z,97.11
2019-02-16T00:23:29.581Z,97.01
2019-02-16T00:25:59.013Z,96.93
2019-02-16T00:28:28.179Z,97.26
2019-02-16T00:30:57.290Z,97.18
2019-02-16T00:33:26.562Z,96.66
2019-02-16T00:35:55.724Z,96.98
2019-02-16T00:38:25.000Z,97.12
2019-02-16T00:40:54.198Z,96.67
2019-02-16T00:43:23.354Z,96.61
2019-02-16T00:45:52.485Z,96.86
2019-02-16T00:48:21.713Z,96.84
2019-02-16T00:50:50.830Z,97.15
2019-02-16T00:53:20.010Z,97.20
2019-02-16T00:55:49.147Z,97.08
2019-02-16T00:58:18.575Z,96.83
2019-02-16T01:00:47.693Z,96.96
2019-02-16T01:03:16.803Z,96.85
2019-02-16T01:05:45.950Z,96.64
2019-02-16T01:08:15.105Z,96.88
2019-02-16T01:10:44.818Z,97.23
2019-02-16T01:13:13.946Z,97.12
2019-02-16T01:15:43.100Z,96.83
2019-02-16T01:18:12.523Z,96.81
2019-02-16T01:20:41.737Z,97.03
2019-02-16T01:23:10.901Z,97.19
2019-02-16T01:25:40.469Z,97.36
2019-02-16T01:28:09.572Z,97.31
2019-02-16T01:30:38.773Z,97.28
2019-02-16T01:33:07.934Z,97.46
2019-02-16T01:35:37.402Z,97.50
2019-02-16T01:38:06.539Z,97.46
2019-02-16T01:40:35.714Z,97.55
2019-02-16T01:43:04.824Z,97.81
2019-02-16T01:45:34.002Z,97.62
2019-02-16T01:48:03.111Z,97.32
2019-02-16T01:50:32.283Z,97.31
2019-02-16T01:53:01.395Z,97.30
2019-02-16T01:55:30.540Z,97.48
2019-02-16T01:57:59.671Z,97.63
2019-02-16T02:00:28.916Z,97.85
2019-02-16T02:02:58.089Z,97.65
2019-02-16T02:05:27.257Z,97.76
2019-02-16T02:07:56.474Z,97.64
2019-02-16T02:10:25.704Z,97.47
2019-02-16T02:12:54.817Z,97.51
2019-02-16T02:15:24.015Z,97.57
2019-02-16T02:17:53.152Z,97.50
2019-02-16T02:20:24.030Z,97.48
2019-02-16T02:22:53.149Z,97.49
2019-02-16T02:25:22.315Z,97.57
2019-02-16T02:27:51.457Z,97.74
2019-02-16T02:30:20.643Z,97.83
2019-02-16T02:32:49.747Z,97.73
2019-02-16T02:35:19.166Z,97.69
2019-02-16T02:37:48.319Z,97.66
2019-02-16T02:40:17.470Z,97.46
2019-02-16T02:42:46.628Z,97.50
2019-02-16T02:45:15.801Z,97.47
2019-02-16T02:47:44.933Z,97.89
2019-02-16T02:50:14.067Z,97.47
2019-02-16T02:52:43.168Z,97.61
2019-02-16T02:55:12.346Z,97.42
2019-02-16T02:57:41.491Z,97.64
2019-02-16T03:00:10.665Z,97.73
2019-02-16T03:02:39.816Z,97.78
2019-02-16T03:05:09.481Z,97.56
2019-02-16T03:07:38.637Z,97.34
2019-02-16T03:10:08.027Z,97.41
2019-02-16T03:12:37.553Z,97.33
2019-02-16T03:15:07.216Z,97.24
2019-02-16T03:17:36.340Z,97.49
2019-02-16T03:20:05.720Z,97.33
2019-02-16T03:23:14.512Z,97.27
2019-02-16T03:25:47.184Z,97.08
2019-02-16T03:28:41.042Z,97.53
2019-02-16T03:31:47.879Z,97.83
2019-02-16T03:34:47.190Z,97.85
2019-02-16T03:37:57.736Z,97.94
2019-02-16T03:40:27.038Z,97.98
2019-02-16T03:42:56.156Z,98.34
2019-02-16T03:45:25.296Z,98.21
2019-02-16T03:47:54.465Z,98.04
2019-02-16T03:50:23.588Z,97.95
2019-02-16T03:52:52.735Z,97.76
2019-02-16T03:55:21.864Z,97.82
2019-02-16T03:57:51.054Z,97.86
2019-02-16T04:00:20.158Z,97.79
2019-02-16T04:02:49.308Z,98.08
2019-02-16T04:05:18.413Z,98.09
2019-02-16T04:07:47.573Z,98.23
2019-02-16T04:10:16.721Z,97.76
2019-02-16T04:12:45.830Z,97.50
2019-02-16T04:15:14.946Z,97.35
2019-02-16T04:17:44.123Z,97.53
2019-02-16T04:20:13.244Z,97.98
2019-02-16T04:22:42.379Z,98.31
2019-02-16T04:25:11.531Z,98.33
2019-02-16T04:27:40.697Z,98.38
2019-02-16T04:30:09.894Z,98.54
2019-02-16T04:32:39.036Z,98.49
2019-02-16T04:35:08.200Z,98.39
2019-02-16T04:37:37.355Z,98.14
2019-02-16T04:40:06.742Z,98.21
2019-02-16T04:42:35.926Z,98.49
2019-02-16T04:45:05.187Z,98.33
2019-02-16T04:47:34.343Z,98.33
2019-02-16T04:50:03.457Z,98.30
2019-02-16T04:52:35.168Z,98.14
2019-02-16T04:55:03.472Z,98.13
2019-02-16T04:57:32.680Z,97.87
2019-02-16T05:00:01.828Z,97.79
2019-02-16T05:02:30.959Z,97.79
2019-02-16T05:05:00.140Z,97.89
2019-02-16T05:07:29.389Z,97.94
2019-02-16T05:09:58.516Z,97.85
2019-02-16T05:12:27.646Z,97.62
2019-02-16T05:14:56.768Z,97.55
2019-02-16T05:17:25.939Z,97.53
2019-02-16T05:19:55.359Z,97.69
2019-02-16T05:22:24.540Z,98.09
2019-02-16T05:24:53.663Z,98.11
2019-02-16T05:27:22.816Z,98.04
2019-02-16T05:29:51.920Z,98.02
2019-02-16T05:32:21.075Z,98.11
2019-02-16T05:34:50.459Z,98.16
2019-02-16T05:37:19.595Z,98.22
2019-02-16T05:39:48.749Z,97.92
2019-02-16T05:42:17.906Z,97.90
2019-02-16T05:44:47.134Z,98.11
2019-02-16T05:47:16.533Z,98.10
2019-02-16T05:49:45.691Z,98.04
2019-02-16T05:52:14.831Z,97.96
2019-02-16T05:54:43.952Z,98.32
2019-02-16T05:57:13.475Z,98.46
2019-02-16T05:59:42.630Z,98.46
2019-02-16T06:02:11.819Z,98.47
2019-02-16T06:04:40.968Z,98.14
2019-02-16T06:07:10.120Z,97.93
2019-02-16T06:09:39.285Z,97.79
2019-02-16T06:12:08.846Z,97.85
2019-02-16T06:14:38.333Z,97.83
2019-02-16T06:17:07.810Z,97.79
2019-02-16T06:19:37.030Z,97.82
2019-02-16T06:22:06.195Z,97.69
2019-02-16T06:24:35.696Z,97.76
2019-02-16T06:27:04.890Z,97.93
2019-02-16T06:29:34.030Z,98.08
2019-02-16T06:32:03.312Z,97.95
2019-02-16T06:34:32.952Z,97.80
2019-02-16T06:37:09.574Z,98.06
2019-02-16T06:39:38.730Z,98.42
2019-02-16T06:42:08.003Z,98.46
2019-02-16T06:44:37.153Z,98.40
2019-02-16T06:47:06.569Z,98.54
2019-02-16T06:49:35.780Z,98.50
2019-02-16T06:52:04.914Z,98.77
2019-02-16T06:54:34.064Z,98.34
2019-02-16T06:57:06.833Z,98.31
2019-02-16T06:59:36.106Z,98.07
2019-02-16T07:02:05.362Z,98.26
2019-02-16T07:04:34.498Z,97.37
2019-02-16T07:07:05.230Z,97.08
2019-02-16T07:09:34.348Z,97.65
2019-02-16T07:12:04.061Z,97.68
2019-02-16T07:14:34.008Z,97.20
2019-02-16T07:17:22.470Z,96.92
2019-02-16T07:19:54.214Z,97.46
2019-02-16T07:22:24.725Z,97.99
2019-02-16T07:24:53.921Z,97.99
2019-02-16T07:27:23.210Z,97.91
2019-02-16T07:29:52.335Z,98.14
2019-02-16T07:32:21.521Z,98.16
2019-02-16T07:34:50.881Z,98.08
2019-02-16T07:37:19.987Z,98.21
2019-02-16T07:39:49.076Z,98.17
2019-02-16T07:42:18.246Z,97.95
2019-02-16T07:45:09.446Z,97.45
2019-02-16T07:47:48.014Z,96.69
2019-02-16T07:50:28.489Z,96.03
2019-02-16T07:53:05.594Z,95.82
2019-02-16T07:55:41.942Z,95.42
2019-02-16T07:58:30.051Z,95.12
2019-02-16T08:01:36.243Z,94.75
2019-02-16T08:04:24.818Z,94.13
2019-02-16T08:07:08.914Z,94.00
2019-02-16T08:09:55.625Z,93.69
2019-02-16T08:12:56.132Z,91.34
2019-02-16T08:15:43.431Z,89.64
2019-02-16T08:18:31.499Z,88.62
2019-02-16T08:21:23.235Z,89.28
2019-02-16T08:24:01.503Z,89.26
2019-02-16T08:26:52.349Z,88.29
2019-02-16T08:29:28.597Z,80.31
2019-02-16T08:32:20.042Z,79.74
2019-02-16T08:34:54.354Z,78.00
2019-02-16T08:37:36.330Z,73.21
2019-02-16T08:40:23.552Z,73.16
2019-02-16T08:43:20.615Z,74.32
2019-02-16T08:45:57.727Z,73.63
2019-02-16T08:48:44.928Z,70.44
2019-02-16T08:51:19.889Z,70.50
2019-02-16T08:54:10.824Z,70.83
2019-02-16T08:57:01.935Z,69.91
2019-02-16T08:59:41.511Z,69.96
2019-02-16T09:02:17.432Z,70.51
2019-02-16T09:05:04.209Z,70.93
2019-02-16T09:07:55.513Z,70.75
2019-02-16T09:11:01.886Z,71.07
2019-02-16T09:13:59.208Z,64.48
2019-02-16T09:16:45.008Z,62.61
2019-02-16T09:19:27.224Z,61.81
2019-02-16T09:22:15.299Z,59.23
2019-02-16T09:24:56.120Z,58.07
2019-02-16T09:27:47.259Z,54.21
2019-02-16T09:30:44.574Z,56.05
2019-02-16T09:33:45.051Z,54.37
2019-02-16T09:36:39.233Z,55.76
2019-02-16T09:39:30.144Z,56.04
2019-02-16T09:42:12.481Z,57.18
2019-02-16T09:45:06.709Z,56.03
2019-02-16T09:47:44.876Z,55.40
2019-02-16T09:50:29.008Z,55.19
2019-02-16T09:53:15.997Z,55.01
2019-02-16T09:56:02.695Z,54.72
2019-02-16T09:59:00.108Z,54.30
2019-02-16T10:02:03.628Z,53.68
2019-02-16T10:05:00.472Z,54.37
2019-02-16T10:07:37.733Z,53.85
2019-02-16T10:10:26.059Z,53.34
2019-02-16T10:13:07.570Z,51.46
2019-02-16T10:15:56.378Z,55.27
2019-02-16T10:18:32.810Z,54.47
2019-02-16T10:21:17.662Z,53.53
2019-02-16T10:24:04.580Z,51.51
2019-02-16T10:27:05.522Z,51.26
2019-02-16T10:29:53.190Z,50.90
2019-02-16T10:32:36.743Z,51.00
2019-02-16T10:35:30.799Z,50.34
2019-02-16T10:38:11.048Z,51.99
2019-02-16T10:40:57.695Z,51.16
2019-02-16T10:43:48.972Z,49.99
2019-02-16T10:46:37.096Z,50.67
2019-02-16T10:49:27.996Z,51.68
2019-02-16T10:52:19.150Z,50.04
2019-02-16T10:55:07.243Z,49.87
2019-02-16T10:58:01.587Z,49.46
2019-02-16T11:00:48.623Z,48.91
2019-02-16T11:03:35.345Z,49.02
2019-02-16T11:06:19.976Z,49.02
2019-02-16T11:09:11.210Z,49.31
2019-02-16T11:11:56.909Z,48.03
2019-02-16T11:14:41.993Z,48.03
2019-02-16T11:17:30.163Z,49.59
2019-02-16T11:20:14.500Z,48.92
2019-02-16T11:23:01.397Z,48.92
2019-02-16T11:25:53.033Z,49.60
2019-02-16T11:28:50.415Z,47.61
2019-02-16T11:31:47.631Z,48.47
2019-02-16T11:34:42.019Z,46.97
2019-02-16T11:37:19.590Z,48.77
2019-02-16T11:40:07.340Z,47.04
2019-02-16T11:42:55.508Z,47.18
2019-02-16T11:45:42.530Z,48.85
2019-02-16T11:48:20.137Z,48.00
2019-02-16T11:50:59.306Z,46.74
2019-02-16T11:53:43.343Z,47.31
2019-02-16T11:56:31.632Z,48.40
2019-02-16T11:59:19.980Z,48.75
2019-02-16T12:02:11.226Z,47.58
2019-02-16T12:04:50.999Z,46.00
2019-02-16T12:07:44.918Z,45.87
2019-02-16T12:10:30.779Z,46.19
2019-02-16T12:13:25.250Z,45.77
2019-02-16T12:16:15.599Z,44.53
2019-02-16T12:18:56.073Z,42.56
2019-02-16T12:21:53.227Z,42.85
2019-02-16T12:24:30.496Z,41.62
2019-02-16T12:27:17.368Z,43.72
2019-02-16T12:29:50.992Z,43.46
2019-02-16T12:32:28.672Z,41.39
2019-02-16T12:35:12.856Z,42.87
2019-02-16T12:37:54.815Z,42.01
2019-02-16T12:40:36.503Z,43.95
2019-02-16T12:43:17.005Z,41.74
2019-02-16T12:45:51.602Z,40.91
2019-02-16T12:48:45.896Z,43.04
2019-02-16T12:51:23.579Z,44.76
2019-02-16T12:54:20.859Z,45.55
2019-02-16T12:56:54.841Z,42.50
2019-02-16T12:59:41.960Z,42.67
2019-02-16T13:02:19.054Z,41.81
2019-02-16T13:05:25.533Z,41.44
2019-02-16T13:08:04.100Z,41.37
2019-02-16T13:10:52.255Z,41.13
2019-02-16T13:13:44.763Z,39.74
2019-02-16T13:16:32.899Z,40.36
2019-02-16T13:19:08.667Z,43.09
2019-02-16T13:21:45.048Z,43.17
2019-02-16T13:24:39.651Z,45.65
2019-02-16T13:27:27.773Z,44.70
2019-02-16T13:30:14.844Z,43.53
2019-02-16T13:33:08.341Z,42.21
2019-02-16T13:35:53.038Z,43.15
2019-02-16T13:38:32.283Z,39.71
2019-02-16T13:41:23.170Z,41.09
2019-02-16T13:44:04.822Z,43.20
2019-02-16T13:46:51.715Z,42.24
2019-02-16T13:49:34.127Z,43.89
2019-02-16T13:52:30.985Z,43.57
2019-02-16T13:55:33.480Z,43.30
2019-02-16T13:58:21.502Z,41.79
2019-02-16T14:01:00.466Z,40.36
2019-02-16T14:03:41.987Z,39.58
2019-02-16T14:06:19.321Z,43.48
2019-02-16T14:09:00.335Z,42.58
2019-02-16T14:11:37.173Z,42.17
2019-02-16T14:14:32.727Z,40.05
2019-02-16T14:17:29.453Z,42.93
2019-02-16T14:19:58.711Z,44.33
2019-02-16T14:22:27.844Z,48.36
2019-02-16T14:24:59.532Z,46.61
2019-02-16T14:27:28.677Z,43.53
2019-02-16T14:29:57.878Z,44.49
2019-02-16T14:32:27.032Z,44.55
2019-02-16T14:34:56.600Z,46.28
2019-02-16T14:37:43.483Z,44.86
2019-02-16T14:40:12.586Z,45.46
2019-02-16T14:42:42.132Z,46.40
2019-02-16T14:45:12.417Z,47.39
2019-02-16T14:47:54.023Z,45.62
2019-02-16T14:50:23.144Z,47.10
2019-02-16T14:52:52.305Z,49.46
2019-02-16T14:55:21.437Z,48.08
2019-02-16T14:57:50.605Z,51.31
2019-02-16T15:00:20.407Z,51.37
2019-02-16T15:02:49.889Z,51.79
2019-02-16T15:05:19.037Z,50.08
2019-02-16T15:07:48.415Z,49.68
2019-02-16T15:10:17.973Z,54.39
2019-02-16T15:12:47.127Z,54.64
2019-02-16T15:15:16.222Z,53.16
2019-02-16T15:17:45.391Z,51.03
2019-02-16T15:20:14.566Z,52.23
2019-02-16T15:22:43.663Z,53.64
2019-02-16T15:25:12.818Z,52.45
2019-02-16T15:27:41.918Z,51.61
2019-02-16T15:30:14.500Z,53.30
2019-02-16T15:32:44.024Z,54.29
2019-02-16T15:35:13.314Z,53.08
2019-02-16T15:37:42.514Z,57.01
2019-02-16T15:40:11.673Z,58.21
2019-02-16T15:42:40.798Z,59.59
2019-02-16T15:45:13.063Z,60.92
2019-02-16T15:47:42.294Z,60.10
2019-02-16T15:50:12.492Z,61.01
2019-02-16T15:52:41.997Z,61.38
2019-02-16T15:55:11.630Z,62.86
2019-02-16T15:57:40.997Z,66.58
2019-02-16T16:00:17.174Z,66.58
2019-02-16T16:02:46.289Z,68.62
2019-02-16T16:05:15.705Z,68.79
2019-02-16T16:07:47.662Z,68.79
2019-02-16T16:10:38.047Z,69.34
2019-02-16T16:13:29.083Z,68.59
2019-02-16T16:16:14.030Z,70.66
2019-02-16T16:18:58.877Z,69.92
2019-02-16T16:22:02.433Z,70.88
2019-02-16T16:24:56.863Z,74.58
2019-02-16T16:27:53.396Z,74.33
2019-02-16T16:30:39.712Z,74.33
2019-02-16T16:33:26.644Z,73.50
2019-02-16T16:36:05.519Z,72.84
2019-02-16T16:38:52.194Z,71.40
2019-02-16T16:41:55.491Z,71.96
2019-02-16T16:44:55.592Z,72.76
2019-02-16T16:47:39.429Z,74.65
2019-02-16T16:50:27.605Z,75.80
2019-02-16T16:53:14.309Z,75.45
2019-02-16T16:56:08.577Z,76.69
2019-02-16T16:58:50.257Z,76.91
2019-02-16T17:01:27.477Z,76.96
2019-02-16T17:04:06.879Z,77.77
2019-02-16T17:06:58.002Z,78.41
2019-02-16T17:09:38.647Z,78.75
2019-02-16T17:12:36.065Z,78.52
2019-02-16T17:15:23.285Z,79.44
2019-02-16T17:18:06.326Z,79.74
2019-02-16T17:20:57.589Z,80.13
2019-02-16T17:23:44.601Z,80.56
2019-02-16T17:26:22.334Z,80.38
2019-02-16T17:29:13.476Z,80.30
2019-02-16T17:31:49.145Z,79.21
2019-02-16T17:34:34.814Z,78.33
2019-02-16T17:37:35.415Z,78.63
2019-02-16T17:40:19.703Z,80.40
2019-02-16T17:43:01.544Z,80.85
2019-02-16T17:45:56.637Z,80.96
2019-02-16T17:48:32.064Z,80.95
2019-02-16T17:51:18.883Z,81.57
2019-02-16T17:54:19.325Z,81.61
2019-02-16T17:57:13.698Z,82.03
2019-02-16T18:00:01.786Z,82.12
2019-02-16T18:02:48.500Z,82.89
2019-02-16T18:05:30.413Z,82.74
2019-02-16T18:08:17.418Z,82.87
2019-02-16T18:11:07.033Z,82.95
2019-02-16T18:13:42.465Z,83.28
2019-02-16T18:16:32.319Z,82.95
2019-02-16T18:19:10.216Z,83.57
2019-02-16T18:21:53.638Z,84.00
2019-02-16T18:24:40.165Z,84.25
2019-02-16T18:27:46.610Z,84.11
2019-02-16T18:30:34.795Z,84.70
2019-02-16T18:33:22.935Z,84.78
2019-02-16T18:36:08.235Z,85.29
2019-02-16T18:38:59.259Z,85.16
2019-02-16T18:41:46.649Z,84.68
2019-02-16T18:44:33.786Z,84.93
2019-02-16T18:47:23.763Z,85.38
2019-02-16T18:50:15.150Z,85.78
2019-02-16T18:53:02.895Z,86.01
2019-02-16T18:56:00.451Z,86.39
2019-02-16T18:58:43.501Z,86.48
2019-02-16T19:01:40.893Z,86.51
2019-02-16T19:04:31.934Z,86.65
2019-02-16T19:07:26.354Z,87.46
2019-02-16T19:10:26.794Z,87.62
2019-02-16T19:13:03.433Z,88.13
2019-02-16T19:15:42.706Z,88.41
2019-02-16T19:18:33.705Z,88.55
2019-02-16T19:21:12.091Z,88.54
2019-02-16T19:23:52.062Z,88.32
2019-02-16T19:26:30.411Z,87.94
2019-02-16T19:29:04.708Z,88.32
2019-02-16T19:32:01.964Z,88.48
2019-02-16T19:34:39.653Z,88.33
2019-02-16T19:37:39.928Z,88.78
2019-02-16T19:40:27.245Z,88.83
2019-02-16T19:43:10.373Z,88.90
2019-02-16T19:45:54.483Z,88.78
2019-02-16T19:49:00.885Z,88.89
2019-02-16T19:51:36.892Z,88.84
2019-02-16T19:54:23.569Z,88.88
2019-02-16T19:57:10.184Z,89.19
2019-02-16T20:00:10.730Z,89.12
2019-02-16T20:03:02.173Z,89.22
2019-02-16T20:05:55.984Z,89.01
2019-02-16T20:08:42.629Z,89.16
2019-02-16T20:11:22.027Z,89.65
2019-02-16T20:14:07.949Z,89.39
2019-02-16T20:16:43.357Z,89.79
2019-02-16T20:19:43.693Z,90.12
2019-02-16T20:22:33.146Z,89.66
2019-02-16T20:25:20.111Z,89.39
2019-02-16T20:27:58.990Z,89.52
2019-02-16T20:30:53.517Z,89.94
2019-02-16T20:33:40.889Z,89.50
2019-02-16T20:36:47.153Z,89.44
2019-02-16T20:39:40.894Z,88.91
2019-02-16T20:42:19.351Z,87.79
2019-02-16T20:45:10.434Z,88.12
2019-02-16T20:47:48.431Z,88.60
2019-02-16T20:50:31.659Z,87.97
2019-02-16T20:53:23.353Z,87.09
2019-02-16T20:56:14.535Z,86.85
2019-02-16T20:59:08.858Z,87.44
2019-02-16T21:01:53.044Z,86.70
2019-02-16T21:04:53.302Z,86.90
2019-02-16T21:07:50.778Z,87.42
2019-02-16T21:10:26.731Z,87.39
2019-02-16T21:13:02.818Z,88.45
2019-02-16T21:15:57.220Z,88.91
2019-02-16T21:18:34.931Z,89.21
2019-02-16T21:21:26.187Z,89.37
2019-02-16T21:24:17.273Z,89.53
2019-02-16T21:27:05.462Z,89.83
2019-02-16T21:29:49.039Z,90.10
2019-02-16T21:32:26.336Z,90.81
2019-02-16T21:35:07.298Z,90.99
2019-02-16T21:37:53.455Z,90.89
2019-02-16T21:40:56.974Z,91.20
2019-02-16T21:44:00.078Z,91.27
2019-02-16T21:46:48.201Z,90.59
2019-02-16T21:49:53.841Z,91.03
2019-02-16T21:52:50.374Z,91.50
2019-02-16T21:55:29.240Z,92.02
2019-02-16T21:58:26.754Z,92.46
2019-02-16T22:01:17.202Z,93.35
2019-02-16T22:04:00.951Z,93.21
2019-02-16T22:06:55.168Z,93.35
2019-02-16T22:09:46.165Z,93.49
2019-02-16T22:12:37.052Z,93.45
2019-02-16T22:15:07.078Z,93.57
2019-02-16T22:17:36.235Z,93.74
2019-02-16T22:20:06.028Z,94.18
2019-02-16T22:22:35.162Z,94.57
2019-02-16T22:25:04.367Z,94.45
2019-02-16T22:27:33.831Z,93.52
2019-02-16T22:30:02.968Z,94.05
2019-02-16T22:32:32.132Z,94.07
2019-02-16T22:35:01.251Z,94.29
2019-02-16T22:37:30.373Z,93.92
2019-02-16T22:39:59.564Z,94.11
2019-02-16T22:42:28.802Z,94.17
2019-02-16T22:44:57.972Z,94.05
2019-02-16T22:47:27.142Z,93.86
2019-02-16T22:49:56.404Z,93.95
2019-02-16T22:52:25.551Z,94.23
2019-02-16T22:54:54.806Z,94.31
2019-02-16T22:57:23.963Z,94.44
2019-02-16T22:59:53.103Z,93.69
2019-02-16T23:02:22.223Z,93.81
2019-02-16T23:04:51.583Z,94.40
2019-02-16T23:07:20.801Z,94.60
2019-02-16T23:09:53.117Z,94.64
2019-02-16T23:12:22.558Z,94.66
2019-02-16T23:14:51.805Z,94.95
2019-02-16T23:17:20.971Z,94.67
2019-02-16T23:19:50.146Z,94.93
2019-02-16T23:22:19.547Z,94.44
2019-02-16T23:24:48.680Z,94.57
2019-02-16T23:27:17.837Z,94.88
2019-02-16T23:29:46.972Z,95.25
2019-02-16T23:32:16.172Z,95.64
2019-02-16T23:34:45.321Z,96.01
2019-02-16T23:37:14.435Z,96.26
2019-02-16T23:39:43.630Z,95.79
2019-02-16T23:42:12.753Z,95.74
2019-02-16T23:44:41.939Z,96.09
2019-02-16T23:47:11.417Z,96.05
2019-02-16T23:49:40.546Z,96.20
2019-02-16T23:52:09.712Z,95.79
2019-02-16T23:54:38.900Z,95.98
2019-02-16T23:57:08.118Z,95.92
2019-02-16T23:59:37.237Z,96.20
